Airfield :
LOGIN :

Register | Disclaimer

   EN    FR    IT 

 










Legend :    VFR   Marginal VFR   IFR   Intensive IFR   Very Intensive IFR
Visi :
Ceiling :
>= 8 km
>= 3000ft
5 to 8 km
1000 to 3000 ft
1500m to 5 km
500 to 1000 ft
800 to 1500m
200 to 500 ft
< 800m
< 200 ft
Symbols :   Thunderstorms  Fog  Heavy snow  Heavy precipitations  Wind > 20 kt
SIGMETs :     Misc.  Thunderstorms  Icing  Turbulence  Mountain Waves  Volcanic Ashes







- Airport Elevation : 194 ft


EBCV - Chièvres

CURRENT METAR :
  • 301555Z AUTO 17013KT 9999 FEW094/// BKN100/// 21/M01 Q1002 BLU

EXPIRED METARs :
  • 301525Z AUTO 16014KT 9999 SCT200/// 21/M02 Q1002 BLU
  • 301455Z AUTO 17011KT 9999 FEW120/// 22/M02 Q1002 BLU
  • 301425Z AUTO 16016KT 9999 FEW083/// BKN200/// 22/M01 Q1002 BLU
  • 301355Z AUTO 14013G23KT 9999 FEW076/// SCT210/// 20/01 Q1003 BLU

TAF TAF EBCV
Valid from the 30 at 13:00 until the 30 at 22:00 UTC


301141Z 3013/3022 13015KT 9999 FEW060 BKN200
BECMG 3018/3020 16016KT SCT050 BKN070
PROB30
TEMPO 3020/3022 16017G30KT BY EBWM
No reported NOTAMs for that airfield.



MET'MAP, your aeronautical weather chart ! - Copyright ORBIFLY December 2007 - Disclaimer

ORBIFLY MET'MAP TEAM :

Programming & Development : Alexandra Zaïnal
Concept & Development : Baudouin d'Aumeries
Co-Development & Prog : Marc-Olivier Méhu
Technical & hardware support : Manuel Goepfert

Contact : metmap@orbifly.com




SOURCES & CREDITS :

   NOAA